Time;durP1;ratioP1;P1;durP2;ratioP2;P2;SDS_P1;SDS_P2;PMS_P1;PMS_P2;Temp;Humidity;BMP_temperature;BMP_pressure;BME280_temperature;BME280_humidity;BME280_pressure;Samples;Min_cycle;Max_cycle;Signal;HPM_P1;HPM_P2
2022/06/18 00:01:33;;;;;;;4.10;2.13;;;22.70;58.00;;;;;;4937740;28;20059;-81
2022/06/18 00:04:11;;;;;;;;;;;22.60;57.70;;;;;;4925288;28;20035;-81
2022/06/18 00:06:43;;;;;;;4.57;2.25;;;22.50;58.30;;;;;;4919136;28;20370;-80
2022/06/18 00:09:12;;;;;;;3.72;2.22;;;22.40;58.30;;;;;;4914041;28;20035;-80
2022/06/18 00:14:22;;;;;;;6.93;2.75;;;22.50;58.00;;;;;;4938652;28;20053;-81
2022/06/18 00:16:47;;;;;;;3.20;2.05;;;22.30;58.20;;;;;;4902432;29;20035;-81
2022/06/18 00:19:13;;;;;;;5.20;2.13;;;22.50;57.80;;;;;;4934343;28;20043;-81
2022/06/18 00:21:38;;;;;;;2.95;2.40;;;22.50;58.50;;;;;;4920874;28;20106;-81
2022/06/18 00:24:18;;;;;;;3.88;2.70;;;22.40;58.50;;;;;;4903349;28;20059;-81
2022/06/18 00:26:44;;;;;;;4.40;1.83;;;22.50;58.70;;;;;;4918599;28;20395;-81
2022/06/18 00:29:15;;;;;;;2.40;2.20;;;22.50;58.90;;;;;;4921106;28;20035;-81
2022/06/18 00:31:40;;;;;;;3.80;2.45;;;22.60;58.00;;;;;;4904097;28;20035;-80
2022/06/18 00:34:06;;;;;;;4.57;2.50;;;22.50;58.40;;;;;;4924019;28;20589;-81
2022/06/18 00:36:31;;;;;;;3.17;1.95;;;22.50;58.50;;;;;;4918459;28;20399;-81
2022/06/18 00:38:57;;;;;;;3.38;2.03;;;22.70;58.20;;;;;;4911080;28;20147;-80
2022/06/18 00:41:24;;;;;;;2.50;2.00;;;22.70;58.00;;;;;;4914766;28;20038;-81
2022/06/18 00:43:55;;;;;;;3.58;2.25;;;22.80;57.80;;;;;;4921890;28;20455;-81
2022/06/18 00:46:43;;;;;;;4.95;2.35;;;22.80;57.70;;;;;;4899023;28;20042;-81
2022/06/18 00:49:19;;;;;;;3.63;2.47;;;22.80;57.90;;;;;;4915297;29;20036;-81
2022/06/18 00:51:56;;;;;;;3.05;1.88;;;22.90;57.90;;;;;;4917657;28;20099;-81
2022/06/18 00:54:33;;;;;;;3.25;2.10;;;22.90;57.60;;;;;;4917555;28;20035;-81
2022/06/18 00:57:13;;;;;;;2.90;1.80;;;22.90;57.60;;;;;;4909445;28;20414;-81
2022/06/18 00:59:48;;;;;;;7.50;2.15;;;22.90;57.90;;;;;;4912649;28;20399;-80
2022/06/18 01:02:18;;;;;;;8.00;2.47;;;23.00;57.60;;;;;;4912724;28;20495;-80
2022/06/18 01:04:44;;;;;;;2.97;2.30;;;22.90;57.70;;;;;;4921392;28;20523;-81
2022/06/18 01:07:32;;;;;;;3.30;1.77;;;23.00;57.50;;;;;;4904839;29;20031;-81
2022/06/18 01:10:03;;;;;;;6.63;1.80;;;23.00;57.50;;;;;;4916252;29;20055;-81
2022/06/18 01:12:29;;;;;;;5.65;1.83;;;23.00;57.40;;;;;;4919555;28;20030;-80
2022/06/18 01:15:00;;;;;;;9.95;1.73;;;23.00;57.40;;;;;;4918845;28;20166;-80
2022/06/18 01:17:26;;;;;;;3.75;1.40;;;23.10;57.50;;;;;;4918509;29;20035;-81
2022/06/18 01:19:52;;;;;;;2.22;1.85;;;23.10;57.60;;;;;;4900288;28;20130;-80
2022/06/18 01:22:36;;;;;;;2.60;1.90;;;23.10;57.30;;;;;;4914729;29;20171;-80
2022/06/18 01:25:05;;;;;;;4.00;1.77;;;23.20;57.30;;;;;;4934054;28;20047;-80
2022/06/18 01:27:30;;;;;;;4.45;1.75;;;23.20;57.20;;;;;;4921992;29;20066;-81
2022/06/18 01:29:56;;;;;;;5.72;2.03;;;23.30;57.30;;;;;;4949937;28;20031;-80
2022/06/18 01:32:22;;;;;;;3.42;1.98;;;23.20;57.20;;;;;;4938302;28;20507;-80
2022/06/18 01:34:47;;;;;;;2.25;1.45;;;23.30;57.10;;;;;;4917905;28;20031;-80
2022/06/18 01:37:13;;;;;;;5.97;1.75;;;23.20;57.20;;;;;;4907490;29;20035;-80
2022/06/18 01:39:41;;;;;;;4.03;1.63;;;23.30;57.00;;;;;;4918913;28;20035;-81
2022/06/18 01:42:11;;;;;;;4.63;1.70;;;23.30;57.10;;;;;;4892275;28;20183;-81
2022/06/18 01:44:55;;;;;;;2.03;1.60;;;23.30;57.10;;;;;;4923404;28;20043;-80
2022/06/18 01:47:22;;;;;;;3.05;1.75;;;23.30;57.10;;;;;;4918394;28;20043;-80
2022/06/18 01:49:53;;;;;;;3.72;1.70;;;23.30;56.80;;;;;;4936109;28;20063;-81
2022/06/18 01:52:21;;;;;;;1.63;1.52;;;23.30;57.10;;;;;;4918340;29;20031;-81
2022/06/18 01:54:48;;;;;;;4.82;1.90;;;23.40;57.10;;;;;;4900434;28;20468;-81
2022/06/18 01:57:17;;;;;;;4.00;1.65;;;23.30;57.10;;;;;;4917866;28;20027;-81
2022/06/18 01:59:48;;;;;;;4.35;1.90;;;23.40;57.00;;;;;;4900474;28;20101;-81
2022/06/18 02:02:15;;;;;;;2.60;1.92;;;23.40;57.00;;;;;;4905261;28;20030;-79
2022/06/18 02:04:41;;;;;;;5.38;1.85;;;23.40;57.10;;;;;;4917098;28;20032;-79
2022/06/18 02:07:06;;;;;;;2.80;1.75;;;23.30;57.20;;;;;;4917003;29;20038;-79
2022/06/18 02:10:06;;;;;;;3.60;1.70;;;23.40;57.30;;;;;;4902360;28;20047;-79
2022/06/18 02:12:35;;;;;;;3.53;1.88;;;23.40;57.20;;;;;;4952449;28;20499;-79
2022/06/18 02:15:03;;;;;;;1.65;1.55;;;23.40;57.20;;;;;;4897878;28;20062;-79
2022/06/18 02:17:29;;;;;;;6.63;2.20;;;23.40;57.10;;;;;;4918077;28;20031;-79
2022/06/18 02:20:00;;;;;;;3.45;1.60;;;23.40;57.10;;;;;;4913007;28;20415;-79
2022/06/18 02:22:37;;;;;;;4.68;1.90;;;23.40;57.40;;;;;;4920971;28;20035;-79
2022/06/18 02:25:03;;;;;;;2.55;1.83;;;23.30;57.50;;;;;;4921109;28;20065;-79
2022/06/18 02:27:29;;;;;;;3.13;1.80;;;23.20;57.50;;;;;;4935517;28;20030;-79
2022/06/18 02:29:55;;;;;;;3.97;1.95;;;23.30;57.70;;;;;;4918198;29;20027;-79
2022/06/18 02:32:32;;;;;;;5.70;2.08;;;23.30;57.60;;;;;;4901357;29;20050;-79
2022/06/18 02:34:57;;;;;;;3.55;1.92;;;23.30;57.60;;;;;;4916775;29;20102;-79
2022/06/18 02:37:25;;;;;;;3.50;1.85;;;23.30;57.70;;;;;;4902451;28;20034;-79
2022/06/18 02:39:52;;;;;;;3.28;1.60;;;23.30;57.60;;;;;;4915825;29;20040;-79
2022/06/18 02:42:19;;;;;;;3.33;2.00;;;23.20;57.60;;;;;;4915903;28;20454;-79
2022/06/18 02:44:45;;;;;;;1.85;1.40;;;23.20;57.80;;;;;;4898636;28;20039;-79
2022/06/18 02:47:11;;;;;;;5.03;1.80;;;23.00;57.80;;;;;;4918106;28;20041;-79
2022/06/18 02:49:46;;;;;;;3.72;2.10;;;23.10;57.80;;;;;;4901013;28;20335;-79
2022/06/18 02:52:11;;;;;;;3.13;1.63;;;23.20;57.90;;;;;;4915327;28;20664;-79
2022/06/18 02:54:37;;;;;;;6.00;2.13;;;23.10;58.00;;;;;;4902063;28;20039;-79
2022/06/18 02:57:05;;;;;;;1.88;1.73;;;23.00;58.00;;;;;;4919551;29;20043;-81
2022/06/18 02:59:30;;;;;;;3.38;1.63;;;23.00;58.20;;;;;;4901606;29;20039;-81
2022/06/18 03:01:56;;;;;;;2.40;1.98;;;23.00;58.20;;;;;;4933775;28;20530;-81
2022/06/18 03:04:21;;;;;;;3.20;1.95;;;23.00;58.30;;;;;;4920202;28;20443;-81
2022/06/18 03:06:48;;;;;;;3.28;2.10;;;23.00;58.50;;;;;;4936607;28;20105;-81
2022/06/18 03:09:14;;;;;;;2.70;1.80;;;23.00;58.50;;;;;;4919503;28;20071;-81
2022/06/18 03:14:23;;;;;;;3.03;2.20;;;22.90;58.50;;;;;;4927255;28;20042;-81
2022/06/18 03:16:49;;;;;;;2.00;1.80;;;22.90;58.70;;;;;;4922560;28;20047;-81
2022/06/18 03:19:29;;;;;;;3.33;2.17;;;22.90;58.70;;;;;;4909102;29;20377;-80
2022/06/18 03:21:57;;;;;;;4.40;2.55;;;22.90;58.70;;;;;;4934871;28;20036;-81
2022/06/18 03:24:23;;;;;;;4.63;1.65;;;22.90;58.80;;;;;;4922108;28;20408;-80
2022/06/18 03:26:48;;;;;;;3.97;2.05;;;22.80;58.70;;;;;;4904211;28;20035;-80
2022/06/18 03:29:14;;;;;;;6.32;2.97;;;22.90;58.90;;;;;;4904712;28;20039;-80
2022/06/18 03:31:40;;;;;;;2.40;1.95;;;22.90;58.90;;;;;;4937812;28;20030;-80
2022/06/18 03:34:05;;;;;;;2.10;1.67;;;22.80;58.90;;;;;;4935673;28;20122;-79
2022/06/18 03:36:31;;;;;;;3.38;2.00;;;22.80;58.70;;;;;;4919483;28;20042;-80
2022/06/18 03:38:56;;;;;;;3.72;2.40;;;22.80;58.80;;;;;;4918221;28;20031;-80
2022/06/18 03:41:22;;;;;;;3.20;1.67;;;22.90;58.90;;;;;;4906051;28;20023;-80
2022/06/18 03:43:48;;;;;;;5.32;2.05;;;22.80;58.90;;;;;;4918065;28;20039;-79
2022/06/18 03:46:15;;;;;;;2.97;2.00;;;22.80;59.10;;;;;;4919450;28;20501;-80
2022/06/18 03:48:42;;;;;;;2.97;1.67;;;22.80;59.20;;;;;;4919182;28;20042;-80
2022/06/18 03:51:07;;;;;;;2.42;1.80;;;22.80;59.10;;;;;;4934917;29;20054;-80
2022/06/18 03:53:33;;;;;;;4.68;2.42;;;22.80;59.10;;;;;;4919872;28;20035;-80
2022/06/18 03:55:59;;;;;;;4.35;2.20;;;22.80;59.10;;;;;;4919379;29;20403;-80
2022/06/18 03:58:27;;;;;;;3.13;1.70;;;22.80;59.30;;;;;;4933404;28;20038;-80
2022/06/18 04:00:52;;;;;;;1.98;1.60;;;22.90;59.20;;;;;;4936338;28;20038;-80
2022/06/18 04:03:18;;;;;;;2.88;2.00;;;22.90;59.10;;;;;;4904292;28;20513;-80
2022/06/18 04:05:43;;;;;;;3.30;1.98;;;22.90;59.20;;;;;;4923253;28;20024;-80
2022/06/18 04:08:14;;;;;;;3.20;1.88;;;22.90;59.20;;;;;;4905761;28;20447;-81
2022/06/18 04:10:40;;;;;;;4.20;2.00;;;22.90;59.30;;;;;;4909647;28;20510;-81
2022/06/18 04:13:05;;;;;;;2.70;2.30;;;22.90;59.30;;;;;;4922597;28;20027;-81
2022/06/18 04:15:31;;;;;;;5.95;2.30;;;22.90;59.30;;;;;;4908655;28;20511;-80
2022/06/18 04:17:57;;;;;;;2.90;1.70;;;23.00;59.40;;;;;;4903602;28;20028;-79
2022/06/18 04:20:27;;;;;;;3.70;2.15;;;23.00;59.20;;;;;;4922998;28;20106;-80
2022/06/18 04:22:54;;;;;;;4.97;1.98;;;23.00;59.20;;;;;;4920704;28;20059;-80
2022/06/18 04:25:19;;;;;;;2.50;1.80;;;23.00;59.20;;;;;;4907887;29;20035;-80
2022/06/18 04:27:45;;;;;;;3.40;2.10;;;23.10;59.00;;;;;;4918438;29;20239;-79
2022/06/18 04:30:11;;;;;;;3.63;2.20;;;23.10;59.10;;;;;;4933349;29;20042;-80
2022/06/18 04:32:37;;;;;;;2.92;2.50;;;23.20;59.10;;;;;;4919168;28;20126;-80
2022/06/18 04:35:04;;;;;;;3.13;2.47;;;23.10;59.10;;;;;;4935622;28;20036;-80
2022/06/18 04:37:30;;;;;;;6.40;3.38;;;23.20;59.00;;;;;;4934136;28;20062;-80
2022/06/18 04:39:55;;;;;;;6.00;2.67;;;23.20;59.40;;;;;;4918298;29;20487;-80
2022/06/18 04:42:21;;;;;;;7.05;2.83;;;23.20;59.20;;;;;;4904445;28;20487;-80
2022/06/18 04:44:46;;;;;;;5.82;3.25;;;23.20;59.10;;;;;;4919478;28;20034;-80
2022/06/18 04:47:12;;;;;;;6.75;2.80;;;23.30;59.00;;;;;;4919776;28;20126;-79
2022/06/18 04:49:37;;;;;;;4.63;2.70;;;23.40;58.90;;;;;;4950929;28;20058;-80
2022/06/18 04:52:03;;;;;;;3.42;2.25;;;23.40;58.90;;;;;;4950887;28;20028;-81
2022/06/18 04:54:29;;;;;;;5.00;2.42;;;23.40;59.00;;;;;;4903651;28;20045;-81
2022/06/18 04:56:54;;;;;;;7.10;3.15;;;23.40;58.90;;;;;;4917703;28;20167;-81
2022/06/18 04:59:20;;;;;;;2.95;2.63;;;23.50;58.90;;;;;;4920831;28;20038;-80
2022/06/18 05:01:45;;;;;;;3.67;2.53;;;23.50;58.80;;;;;;4936924;29;20040;-81
2022/06/18 05:04:11;;;;;;;4.07;2.55;;;23.60;58.80;;;;;;4935049;29;20039;-81
2022/06/18 05:06:37;;;;;;;2.53;2.33;;;23.70;58.50;;;;;;4922978;28;20043;-81
2022/06/18 05:09:03;;;;;;;4.13;2.15;;;23.80;58.50;;;;;;4904854;28;20522;-81
2022/06/18 05:11:28;;;;;;;3.63;2.33;;;23.90;58.50;;;;;;4907405;28;20114;-81
2022/06/18 05:13:54;;;;;;;4.90;2.90;;;23.90;58.40;;;;;;4921336;29;20487;-80
2022/06/18 05:16:19;;;;;;;4.70;2.50;;;24.00;58.40;;;;;;4902771;28;20031;-81
2022/06/18 05:18:45;;;;;;;5.53;2.15;;;24.20;58.30;;;;;;4900484;28;20031;-80
2022/06/18 05:21:11;;;;;;;4.53;2.70;;;24.10;58.20;;;;;;4902509;28;20395;-81
2022/06/18 05:23:37;;;;;;;4.32;2.85;;;24.30;57.90;;;;;;4949817;28;20047;-81
2022/06/18 05:26:02;;;;;;;5.03;2.95;;;24.40;58.00;;;;;;4903300;28;20042;-81
2022/06/18 05:28:28;;;;;;;3.13;2.25;;;24.50;57.80;;;;;;4901867;29;20124;-81
2022/06/18 05:30:53;;;;;;;6.00;2.97;;;24.50;57.70;;;;;;4903353;28;20142;-80
2022/06/18 05:33:19;;;;;;;5.65;3.38;;;24.50;57.80;;;;;;4916813;28;20114;-79
2022/06/18 05:35:45;;;;;;;9.13;3.40;;;24.80;57.70;;;;;;4917482;29;20039;-79
2022/06/18 05:38:15;;;;;;;5.28;2.47;;;25.00;57.70;;;;;;4936887;29;20035;-80
2022/06/18 05:40:41;;;;;;;3.67;2.63;;;24.90;57.70;;;;;;4917083;28;20114;-80
2022/06/18 05:43:06;;;;;;;4.50;2.40;;;25.10;57.10;;;;;;4915720;29;20578;-80
2022/06/18 05:45:32;;;;;;;4.40;2.75;;;25.20;56.70;;;;;;4905073;28;20601;-80
2022/06/18 05:47:57;;;;;;;5.05;2.33;;;25.40;57.60;;;;;;4919700;28;20407;-80
2022/06/18 05:50:23;;;;;;;6.68;2.60;;;25.50;56.20;;;;;;4937573;28;20105;-82
2022/06/18 05:52:49;;;;;;;3.78;2.28;;;25.60;56.30;;;;;;4914974;29;20039;-80
2022/06/18 05:55:15;;;;;;;3.22;2.22;;;25.80;56.20;;;;;;4922546;28;20038;-80
2022/06/18 05:57:52;;;;;;;2.47;2.22;;;25.70;56.20;;;;;;4920033;29;20032;-80
2022/06/18 06:00:19;;;;;;;4.03;2.80;;;25.90;56.50;;;;;;4918739;28;20090;-79
2022/06/18 06:02:45;;;;;;;5.20;2.55;;;26.00;56.40;;;;;;4903950;29;20407;-80
2022/06/18 06:05:10;;;;;;;12.23;2.38;;;26.00;56.00;;;;;;4906922;28;20031;-80
2022/06/18 06:07:36;;;;;;;3.63;2.28;;;26.10;56.10;;;;;;4903157;28;20067;-80
2022/06/18 06:12:49;;;;;;;5.95;2.75;;;26.50;55.20;;;;;;4925203;28;20122;-80
2022/06/18 06:15:14;;;;;;;3.78;2.30;;;26.40;56.00;;;;;;4917449;28;20542;-80
2022/06/18 06:17:40;;;;;;;4.80;2.47;;;26.80;56.20;;;;;;4903255;28;20506;-81
2022/06/18 06:20:16;;;;;;;2.63;2.05;;;27.10;54.70;;;;;;4933165;28;20407;-81
2022/06/18 06:22:41;;;;;;;;;;;27.20;54.20;;;;;;4915679;28;20039;-81
2022/06/18 06:25:07;;;;;;;3.50;2.17;;;27.60;53.80;;;;;;4950010;28;19918;-81
2022/06/18 06:27:32;;;;;;;4.35;2.30;;;27.80;55.40;;;;;;4934350;28;20035;-81
2022/06/18 06:29:58;;;;;;;4.30;2.30;;;27.70;53.40;;;;;;4932696;28;20031;-81
2022/06/18 06:32:24;;;;;;;5.13;2.30;;;28.00;54.00;;;;;;4905518;28;20031;-81
2022/06/18 06:34:49;;;;;;;3.75;2.47;;;28.00;53.70;;;;;;4906117;28;20037;-81
2022/06/18 06:37:15;;;;;;;4.13;2.17;;;27.80;53.10;;;;;;4932398;29;20103;-81
2022/06/18 06:39:40;;;;;;;6.25;2.70;;;28.10;54.30;;;;;;4920078;28;20031;-81
2022/06/18 06:42:06;;;;;;;6.05;2.40;;;28.30;52.80;;;;;;4901075;29;20054;-81
2022/06/18 06:44:31;;;;;;;4.57;2.40;;;27.90;53.50;;;;;;4906232;28;20042;-81
2022/06/18 06:46:59;;;;;;;4.22;2.10;;;28.60;53.40;;;;;;4921458;28;20126;-81
2022/06/18 06:49:25;;;;;;;4.55;2.08;;;28.00;52.90;;;;;;4920664;28;20443;-81
2022/06/18 06:51:53;;;;;;;4.80;2.80;;;28.30;54.30;;;;;;4925245;29;20078;-81
2022/06/18 06:54:19;;;;;;;4.57;2.55;;;29.30;53.90;;;;;;4936442;28;20452;-81
2022/06/18 06:59:28;;;;;;;3.05;2.33;;;30.00;51.20;;;;;;4935642;28;20046;-82
2022/06/18 07:01:54;;;;;;;4.18;2.25;;;29.90;51.10;;;;;;4904187;28;20028;-82
2022/06/18 07:04:19;;;;;;;3.45;1.92;;;29.20;51.80;;;;;;4905698;28;20406;-82
2022/06/18 07:06:45;;;;;;;5.97;3.80;;;28.90;52.10;;;;;;4903691;28;20035;-82
2022/06/18 07:09:11;;;;;;;3.13;1.92;;;29.40;51.50;;;;;;4907908;28;20039;-82
2022/06/18 07:11:37;;;;;;;3.90;2.38;;;29.80;52.50;;;;;;4912703;28;20037;-82
2022/06/18 07:14:03;;;;;;;5.25;2.22;;;30.20;52.40;;;;;;4923562;29;20130;-82
2022/06/18 07:16:28;;;;;;;3.55;2.28;;;30.50;50.90;;;;;;4919867;29;20562;-81
2022/06/18 07:18:55;;;;;;;3.13;2.22;;;30.40;51.40;;;;;;4911457;28;20027;-82
2022/06/18 07:21:21;;;;;;;6.60;2.40;;;30.00;52.30;;;;;;4905379;29;20032;-82
2022/06/18 07:23:47;;;;;;;2.78;2.13;;;30.60;51.20;;;;;;4922581;28;20034;-82
2022/06/18 07:26:15;;;;;;;6.15;2.50;;;30.80;50.30;;;;;;4906059;28;20028;-82
2022/06/18 07:28:42;;;;;;;6.63;2.60;;;31.30;50.60;;;;;;4921157;28;20507;-81
2022/06/18 07:31:09;;;;;;;5.15;3.10;;;31.40;50.40;;;;;;4903095;28;20534;-82
2022/06/18 07:33:35;;;;;;;6.70;2.92;;;31.50;50.10;;;;;;4903599;29;20657;-83
2022/06/18 07:36:00;;;;;;;6.97;2.28;;;31.80;50.20;;;;;;4907976;28;20041;-83
2022/06/18 07:38:27;;;;;;;6.85;3.17;;;31.80;48.50;;;;;;4908018;28;20415;-82
2022/06/18 07:40:53;;;;;;;8.25;2.53;;;31.90;49.40;;;;;;4905472;29;20407;-83
2022/06/18 07:43:31;;;;;;;10.73;2.97;;;31.70;48.90;;;;;;4921064;29;20024;-83
2022/06/18 07:45:56;;;;;;;6.18;2.53;;;32.60;48.70;;;;;;4902891;28;20036;-83
2022/06/18 07:48:22;;;;;;;4.43;2.72;;;32.50;48.50;;;;;;4934504;28;20034;-83
2022/06/18 07:50:48;;;;;;;5.35;2.53;;;32.90;48.10;;;;;;4905161;29;20054;-83
2022/06/18 07:53:19;;;;;;;6.35;2.97;;;32.80;47.50;;;;;;4938233;28;20055;-84
2022/06/18 07:55:45;;;;;;;5.03;2.78;;;33.00;47.70;;;;;;4919658;28;20043;-83
2022/06/18 07:58:10;;;;;;;8.90;2.90;;;32.70;48.10;;;;;;4914147;28;20035;-84
2022/06/18 08:00:39;;;;;;;7.18;3.03;;;32.40;47.20;;;;;;4922815;28;20031;-85
2022/06/18 08:03:05;;;;;;;10.23;2.70;;;33.00;47.30;;;;;;4913523;28;20039;-85
2022/06/18 08:05:31;;;;;;;7.10;2.85;;;33.20;47.90;;;;;;4918998;28;20054;-84
2022/06/18 08:07:56;;;;;;;8.02;3.00;;;33.40;48.10;;;;;;4922672;29;20411;-85
2022/06/18 08:10:22;;;;;;;4.95;2.70;;;33.80;47.80;;;;;;4922860;28;20042;-86
2022/06/18 08:12:47;;;;;;;3.70;2.00;;;33.30;47.40;;;;;;4925485;28;20399;-87
2022/06/18 08:15:13;;;;;;;11.15;3.05;;;33.70;47.00;;;;;;4919355;29;20047;-87
2022/06/18 08:17:39;;;;;;;7.78;2.45;;;34.10;47.40;;;;;;4920194;29;20086;-87
2022/06/18 08:20:05;;;;;;;4.35;2.53;;;34.20;47.10;;;;;;4910155;28;20047;-87
2022/06/18 08:22:31;;;;;;;6.03;2.78;;;34.10;45.60;;;;;;4925447;28;20035;-87
2022/06/18 08:24:57;;;;;;;3.75;2.58;;;34.40;46.10;;;;;;4921574;28;20106;-87
2022/06/18 08:27:22;;;;;;;7.28;2.45;;;34.70;46.60;;;;;;4906533;28;20110;-88
2022/06/18 08:29:48;;;;;;;6.93;3.42;;;34.80;45.90;;;;;;4908776;29;20034;-87
2022/06/18 08:32:14;;;;;;;7.75;3.22;;;35.00;45.90;;;;;;4918246;28;20384;-87
2022/06/18 08:34:39;;;;;;;8.60;3.03;;;35.30;45.30;;;;;;4919060;28;20050;-87
2022/06/18 08:37:05;;;;;;;8.00;2.72;;;35.30;46.00;;;;;;4907556;28;20122;-87
2022/06/18 08:39:31;;;;;;;10.05;2.63;;;34.90;44.90;;;;;;4920665;28;20166;-86
2022/06/18 08:42:16;;;;;;;4.22;2.78;;;34.30;44.90;;;;;;4918783;28;20031;-87
2022/06/18 08:45:03;;;;;;;9.18;3.65;;;34.90;45.40;;;;;;4898954;28;20035;-86
2022/06/18 08:47:34;;;;;;;12.50;2.92;;;35.40;45.30;;;;;;4935137;28;20069;-86
2022/06/18 08:50:22;;;;;;;5.32;2.42;;;35.70;44.30;;;;;;4929810;28;20110;-86
2022/06/18 08:53:15;;;;;;;8.77;3.35;;;35.60;44.30;;;;;;4937424;28;20594;-84
2022/06/18 08:55:53;;;;;;;4.90;2.97;;;35.80;44.40;;;;;;4950401;28;20036;-84
2022/06/18 08:58:32;;;;;;;5.68;2.67;;;35.90;43.80;;;;;;4918558;28;20038;-84
2022/06/18 09:01:17;;;;;;;6.90;2.85;;;36.10;43.70;;;;;;4932901;29;20118;-85
2022/06/18 09:04:07;;;;;;;4.95;2.65;;;36.00;42.60;;;;;;4938819;28;20038;-84
2022/06/18 09:06:47;;;;;;;6.85;2.78;;;35.80;43.80;;;;;;4935165;28;20034;-84
2022/06/18 09:09:26;;;;;;;9.43;2.80;;;36.20;44.00;;;;;;4936165;28;20036;-83
2022/06/18 09:11:56;;;;;;;8.18;2.60;;;36.20;43.80;;;;;;4912054;28;20118;-83
2022/06/18 09:14:43;;;;;;;6.45;3.00;;;36.30;42.50;;;;;;4921055;28;20482;-82
2022/06/18 09:17:17;;;;;;;9.40;2.55;;;35.90;42.80;;;;;;4933969;28;20100;-82
2022/06/18 09:19:43;;;;;;;7.05;2.72;;;35.80;43.60;;;;;;4919486;28;20031;-82
2022/06/18 09:22:15;;;;;;;7.75;2.83;;;36.50;43.60;;;;;;4902099;28;20034;-81
2022/06/18 09:24:45;;;;;;;6.18;2.58;;;36.60;43.70;;;;;;4925403;28;20042;-81
2022/06/18 09:27:43;;;;;;;8.25;2.75;;;36.80;42.80;;;;;;4919011;28;20046;-81
2022/06/18 09:30:10;;;;;;;6.22;2.85;;;37.20;42.40;;;;;;4919333;29;20056;-80
2022/06/18 09:32:44;;;;;;;6.20;2.75;;;37.30;42.60;;;;;;4932942;28;20035;-81
2022/06/18 09:35:20;;;;;;;7.95;2.70;;;37.50;42.20;;;;;;4929858;28;20126;-81
2022/06/18 09:38:07;;;;;;;9.18;2.92;;;37.60;41.80;;;;;;4916864;28;20027;-82
2022/06/18 09:40:39;;;;;;;5.13;2.38;;;37.60;41.90;;;;;;4932032;28;20038;-82
2022/06/18 09:43:32;;;;;;;10.27;3.65;;;37.90;41.90;;;;;;4920571;28;20058;-82
2022/06/18 09:45:59;;;;;;;5.28;2.78;;;37.70;42.40;;;;;;4917847;28;20034;-81
2022/06/18 09:48:25;;;;;;;8.02;3.30;;;38.10;42.10;;;;;;4913988;29;20035;-81
2022/06/18 09:50:58;;;;;;;10.30;3.10;;;38.50;41.50;;;;;;4902497;28;20510;-82
2022/06/18 09:53:27;;;;;;;5.22;2.65;;;38.50;40.50;;;;;;4904523;28;20115;-82
2022/06/18 09:55:55;;;;;;;6.72;2.53;;;38.50;40.80;;;;;;4914372;29;20045;-82
2022/06/18 09:58:29;;;;;;;11.68;3.78;;;38.60;40.90;;;;;;4907555;29;20039;-82
2022/06/18 10:01:01;;;;;;;6.93;2.63;;;38.70;40.20;;;;;;4916190;29;20143;-82
2022/06/18 10:09:09;;;;;;;4.60;2.40;;;38.70;40.30;;;;;;4924000;29;20038;-81
2022/06/18 10:11:35;;;;;;;7.47;2.38;;;38.90;40.50;;;;;;4900292;28;20030;-81
2022/06/18 10:14:13;;;;;;;8.23;3.22;;;38.80;40.80;;;;;;4920686;29;20115;-81
2022/06/18 10:17:01;;;;;;;10.57;2.97;;;39.00;40.40;;;;;;4920345;28;20042;-80
2022/06/18 10:19:46;;;;;;;10.95;2.72;;;39.20;40.00;;;;;;4928887;28;20024;-81
2022/06/18 10:22:23;;;;;;;12.65;2.78;;;39.30;39.60;;;;;;4931598;28;20038;-82
2022/06/18 10:25:01;;;;;;;8.65;2.67;;;39.40;39.80;;;;;;4918300;28;20073;-81
2022/06/18 10:27:50;;;;;;;12.70;3.42;;;39.50;39.70;;;;;;4907302;28;20023;-81
2022/06/18 10:30:24;;;;;;;7.50;2.60;;;39.00;38.50;;;;;;4899859;28;20035;-80
2022/06/18 10:33:02;;;;;;;5.70;2.38;;;39.40;38.70;;;;;;4909783;28;20035;-83
2022/06/18 10:35:54;;;;;;;9.80;3.20;;;39.60;39.60;;;;;;4937835;28;20089;-81
2022/06/18 10:38:53;;;;;;;4.13;2.47;;;39.70;38.50;;;;;;4930795;28;20072;-81
2022/06/18 10:41:41;;;;;;;11.73;3.47;;;39.80;38.60;;;;;;4948625;28;20031;-81
2022/06/18 10:44:12;;;;;;;6.55;2.50;;;40.10;38.00;;;;;;4934198;28;20059;-82
2022/06/18 10:46:38;;;;;;;7.07;2.58;;;40.00;37.90;;;;;;4935860;28;20058;-82
2022/06/18 10:49:04;;;;;;;9.25;2.22;;;39.90;37.50;;;;;;4934505;28;20491;-82
2022/06/18 10:51:43;;;;;;;8.98;2.85;;;39.90;37.50;;;;;;4917679;29;20110;-82
2022/06/18 10:54:09;;;;;;;9.13;2.70;;;40.10;37.00;;;;;;4919810;28;20126;-82
2022/06/18 10:56:49;;;;;;;5.60;2.55;;;40.20;37.10;;;;;;4916073;29;20035;-82
2022/06/18 10:59:15;;;;;;;10.18;3.38;;;40.40;36.80;;;;;;4931520;29;20046;-82
2022/06/18 11:01:45;;;;;;;6.07;2.15;;;40.70;37.70;;;;;;4917673;29;20522;-80
2022/06/18 11:04:19;;;;;;;9.40;2.30;;;40.50;36.60;;;;;;4915000;28;20043;-81
2022/06/18 11:06:45;;;;;;;10.18;2.67;;;40.40;36.40;;;;;;4909255;29;20091;-83
2022/06/18 11:09:11;;;;;;;7.88;2.45;;;40.90;37.90;;;;;;4903694;29;20139;-81
2022/06/18 11:11:38;;;;;;;16.20;2.88;;;41.10;36.10;;;;;;4903290;28;20043;-82
2022/06/18 11:14:13;;;;;;;10.98;1.92;;;41.10;35.50;;;;;;4920046;28;20031;-81
2022/06/18 11:16:43;;;;;;;10.48;3.85;;;41.00;35.30;;;;;;4919744;28;20036;-81
2022/06/18 11:19:24;;;;;;;12.68;3.08;;;41.20;35.70;;;;;;4916597;28;20032;-81
2022/06/18 11:21:50;;;;;;;13.38;2.90;;;41.20;35.50;;;;;;4900422;28;20040;-80
2022/06/18 11:24:32;;;;;;;6.85;2.38;;;41.30;35.40;;;;;;4932896;28;20177;-82
2022/06/18 11:27:00;;;;;;;7.47;2.67;;;41.40;35.30;;;;;;4930646;28;20082;-81
2022/06/18 11:29:47;;;;;;;9.52;3.40;;;41.40;35.60;;;;;;4907593;28;20077;-81
2022/06/18 11:32:17;;;;;;;16.08;3.22;;;41.50;35.30;;;;;;4930554;28;20030;-82
2022/06/18 11:34:44;;;;;;;9.45;2.60;;;41.70;34.60;;;;;;4934271;28;20496;-82
2022/06/18 11:37:26;;;;;;;11.35;2.38;;;41.70;35.10;;;;;;4939652;28;20098;-82
2022/06/18 11:39:57;;;;;;;8.75;2.65;;;41.80;35.50;;;;;;4916001;29;20044;-82
2022/06/18 11:42:41;;;;;;;8.68;2.35;;;41.90;34.90;;;;;;4909433;28;20055;-81
2022/06/18 11:45:19;;;;;;;14.23;3.57;;;41.80;34.90;;;;;;4918388;29;20086;-81
2022/06/18 11:47:54;;;;;;;5.43;2.38;;;41.90;34.90;;;;;;4918416;29;20460;-80
2022/06/18 11:50:24;;;;;;;8.77;2.63;;;42.10;35.10;;;;;;4919823;28;20117;-79
2022/06/18 11:53:06;;;;;;;10.68;3.00;;;42.30;34.10;;;;;;4936278;28;20491;-80
2022/06/18 11:55:37;;;;;;;19.63;2.78;;;42.50;33.50;;;;;;4922865;28;20436;-80
2022/06/18 11:58:05;;;;;;;9.30;2.58;;;42.40;34.00;;;;;;4920078;28;20045;-80
2022/06/18 12:00:57;;;;;;;7.57;2.95;;;42.50;34.80;;;;;;4952420;28;20059;-81
2022/06/18 12:03:29;;;;;;;7.90;2.83;;;42.60;33.90;;;;;;4936325;28;20516;-79
2022/06/18 12:06:14;;;;;;;9.05;2.65;;;42.70;34.60;;;;;;4905480;28;20039;-81
2022/06/18 12:08:39;;;;;;;11.88;2.83;;;42.70;33.90;;;;;;4933754;28;20039;-82
2022/06/18 12:11:14;;;;;;;12.68;3.50;;;42.80;34.20;;;;;;4930203;28;20050;-79
2022/06/18 12:13:48;;;;;;;13.52;2.55;;;43.00;33.60;;;;;;4934639;28;20415;-79
2022/06/18 12:16:45;;;;;;;6.65;2.42;;;43.10;34.10;;;;;;4918307;28;20735;-80
2022/06/18 12:19:17;;;;;;;16.10;2.95;;;43.10;33.00;;;;;;4893326;28;20090;-80
2022/06/18 12:21:52;;;;;;;9.73;2.80;;;43.20;33.70;;;;;;4934016;28;20039;-80
2022/06/18 12:24:26;;;;;;;10.80;2.47;;;43.40;33.60;;;;;;4918089;29;20077;-79
2022/06/18 12:27:11;;;;;;;11.40;3.40;;;43.30;32.90;;;;;;4950832;28;20050;-79
2022/06/18 12:29:40;;;;;;;;;;;43.40;33.00;;;;;;4933865;28;20114;-81
2022/06/18 12:32:24;;;;;;;6.57;2.78;;;43.50;32.40;;;;;;4916987;29;20069;-80
2022/06/18 12:34:58;;;;;;;11.77;2.50;;;43.60;32.40;;;;;;4953483;28;20640;-80
2022/06/18 12:37:38;;;;;;;8.73;2.38;;;43.60;32.60;;;;;;4933478;28;20031;-80
2022/06/18 12:40:13;;;;;;;8.75;2.67;;;43.70;32.80;;;;;;4919523;28;20483;-80
2022/06/18 12:42:51;;;;;;;10.27;4.63;;;43.80;33.10;;;;;;4935972;28;20066;-79
2022/06/18 12:45:20;;;;;;;6.75;2.50;;;43.80;32.90;;;;;;4918841;28;20066;-80
2022/06/18 12:47:57;;;;;;;14.35;3.45;;;44.00;32.90;;;;;;4935857;29;20139;-79
2022/06/18 12:50:35;;;;;;;13.00;3.30;;;43.90;31.80;;;;;;4915826;28;20551;-80
2022/06/18 12:53:19;;;;;;;7.40;2.55;;;43.80;33.00;;;;;;4932194;29;20094;-80
2022/06/18 12:55:47;;;;;;;9.25;2.63;;;44.00;32.80;;;;;;4933503;28;20032;-79
2022/06/18 12:58:38;;;;;;;13.63;3.28;;;44.10;32.60;;;;;;4936875;28;20019;-79
2022/06/18 13:01:09;;;;;;;12.27;2.97;;;44.10;32.00;;;;;;4916671;28;20838;-80
2022/06/18 13:03:35;;;;;;;8.10;2.60;;;44.10;31.90;;;;;;4918410;28;20066;-79
2022/06/18 13:06:43;;;;;;;14.52;2.72;;;44.00;31.20;;;;;;4933381;28;20043;-79
2022/06/18 13:09:27;;;;;;;15.00;2.20;;;44.10;31.50;;;;;;4936590;28;20047;-80
2022/06/18 13:12:08;;;;;;;6.60;2.85;;;44.40;32.00;;;;;;4934788;28;20507;-80
2022/06/18 13:15:04;;;;;;;11.57;3.40;;;44.30;32.00;;;;;;4934263;28;21600;-79
2022/06/18 13:17:40;;;;;;;7.93;2.33;;;44.60;31.40;;;;;;4951087;28;20114;-80
2022/06/18 13:20:12;;;;;;;8.57;2.58;;;44.50;32.50;;;;;;4935858;28;20019;-80